sensor_id;sensor_type;location;lat;lon;timestamp;P1;durP1;ratioP1;P2;durP2;ratioP2
4508;SDS011;2267;48.816;9.230;2024-03-02T00:01:06;16.27;;;14.97;;
4508;SDS011;2267;48.816;9.230;2024-03-02T00:03:33;16.03;;;14.73;;
4508;SDS011;2267;48.816;9.230;2024-03-02T00:06:00;16.30;;;15.00;;
4508;SDS011;2267;48.816;9.230;2024-03-02T00:08:27;16.27;;;14.97;;
4508;SDS011;2267;48.816;9.230;2024-03-02T00:10:58;16.23;;;14.83;;
4508;SDS011;2267;48.816;9.230;2024-03-02T00:13:26;15.33;;;13.93;;
4508;SDS011;2267;48.816;9.230;2024-03-02T00:15:54;16.60;;;15.20;;
4508;SDS011;2267;48.816;9.230;2024-03-02T00:21:01;16.13;;;14.80;;
4508;SDS011;2267;48.816;9.230;2024-03-02T00:23:30;16.83;;;15.40;;
4508;SDS011;2267;48.816;9.230;2024-03-02T00:25:57;16.93;;;15.50;;
4508;SDS011;2267;48.816;9.230;2024-03-02T00:28:29;16.10;;;14.77;;
4508;SDS011;2267;48.816;9.230;2024-03-02T00:31:04;19.10;;;17.50;;
4508;SDS011;2267;48.816;9.230;2024-03-02T00:33:45;15.93;;;14.53;;
4508;SDS011;2267;48.816;9.230;2024-03-02T00:36:16;16.80;;;15.40;;
4508;SDS011;2267;48.816;9.230;2024-03-02T00:38:49;15.67;;;14.27;;
4508;SDS011;2267;48.816;9.230;2024-03-02T00:41:25;16.87;;;15.57;;
4508;SDS011;2267;48.816;9.230;2024-03-02T00:43:57;17.03;;;15.53;;
4508;SDS011;2267;48.816;9.230;2024-03-02T00:46:24;16.70;;;15.30;;
4508;SDS011;2267;48.816;9.230;2024-03-02T00:48:54;18.23;;;16.73;;
4508;SDS011;2267;48.816;9.230;2024-03-02T00:51:26;16.23;;;15.03;;
4508;SDS011;2267;48.816;9.230;2024-03-02T00:53:54;16.40;;;15.10;;
4508;SDS011;2267;48.816;9.230;2024-03-02T00:56:23;17.23;;;15.77;;
4508;SDS011;2267;48.816;9.230;2024-03-02T00:58:51;16.03;;;14.73;;
4508;SDS011;2267;48.816;9.230;2024-03-02T01:01:19;16.17;;;14.90;;
4508;SDS011;2267;48.816;9.230;2024-03-02T01:03:46;15.87;;;14.50;;
4508;SDS011;2267;48.816;9.230;2024-03-02T01:06:13;16.63;;;15.20;;
4508;SDS011;2267;48.816;9.230;2024-03-02T01:08:41;17.77;;;16.07;;
4508;SDS011;2267;48.816;9.230;2024-03-02T01:11:08;16.00;;;14.70;;
4508;SDS011;2267;48.816;9.230;2024-03-02T01:13:35;16.47;;;15.17;;
4508;SDS011;2267;48.816;9.230;2024-03-02T01:16:02;16.17;;;14.70;;
4508;SDS011;2267;48.816;9.230;2024-03-02T01:18:30;14.80;;;13.60;;
4508;SDS011;2267;48.816;9.230;2024-03-02T01:20:57;16.53;;;15.13;;
4508;SDS011;2267;48.816;9.230;2024-03-02T01:23:24;16.93;;;15.53;;
4508;SDS011;2267;48.816;9.230;2024-03-02T01:25:51;16.83;;;15.43;;
4508;SDS011;2267;48.816;9.230;2024-03-02T01:28:19;16.80;;;15.50;;
4508;SDS011;2267;48.816;9.230;2024-03-02T01:30:47;15.67;;;14.37;;
4508;SDS011;2267;48.816;9.230;2024-03-02T01:33:15;15.93;;;14.70;;
4508;SDS011;2267;48.816;9.230;2024-03-02T01:35:43;16.57;;;15.17;;
4508;SDS011;2267;48.816;9.230;2024-03-02T01:38:10;16.40;;;15.00;;
4508;SDS011;2267;48.816;9.230;2024-03-02T01:40:37;17.47;;;16.00;;
4508;SDS011;2267;48.816;9.230;2024-03-02T01:43:07;16.73;;;15.43;;
4508;SDS011;2267;48.816;9.230;2024-03-02T01:45:34;16.30;;;15.00;;
4508;SDS011;2267;48.816;9.230;2024-03-02T01:48:06;15.97;;;14.60;;
4508;SDS011;2267;48.816;9.230;2024-03-02T01:50:34;17.40;;;16.00;;
4508;SDS011;2267;48.816;9.230;2024-03-02T01:53:01;16.30;;;15.00;;
4508;SDS011;2267;48.816;9.230;2024-03-02T01:55:31;17.00;;;15.63;;
4508;SDS011;2267;48.816;9.230;2024-03-02T01:57:59;16.97;;;15.43;;
4508;SDS011;2267;48.816;9.230;2024-03-02T02:00:26;18.87;;;17.27;;
4508;SDS011;2267;48.816;9.230;2024-03-02T02:02:53;16.83;;;15.43;;
4508;SDS011;2267;48.816;9.230;2024-03-02T02:05:21;17.00;;;15.70;;
4508;SDS011;2267;48.816;9.230;2024-03-02T02:07:48;16.13;;;14.70;;
4508;SDS011;2267;48.816;9.230;2024-03-02T02:10:15;16.23;;;14.93;;
4508;SDS011;2267;48.816;9.230;2024-03-02T02:12:42;17.37;;;15.97;;
4508;SDS011;2267;48.816;9.230;2024-03-02T02:15:28;18.97;;;17.37;;
4508;SDS011;2267;48.816;9.230;2024-03-02T02:17:56;15.97;;;14.60;;
4508;SDS011;2267;48.816;9.230;2024-03-02T02:20:24;16.07;;;14.77;;
4508;SDS011;2267;48.816;9.230;2024-03-02T02:22:55;15.73;;;14.43;;
4508;SDS011;2267;48.816;9.230;2024-03-02T02:25:22;16.90;;;15.50;;
4508;SDS011;2267;48.816;9.230;2024-03-02T02:27:49;16.00;;;14.60;;
4508;SDS011;2267;48.816;9.230;2024-03-02T02:30:23;16.27;;;15.07;;
4508;SDS011;2267;48.816;9.230;2024-03-02T02:32:52;16.13;;;14.83;;
4508;SDS011;2267;48.816;9.230;2024-03-02T02:35:19;15.73;;;14.43;;
4508;SDS011;2267;48.816;9.230;2024-03-02T02:37:46;14.77;;;13.47;;
4508;SDS011;2267;48.816;9.230;2024-03-02T02:40:14;15.90;;;14.50;;
4508;SDS011;2267;48.816;9.230;2024-03-02T02:42:41;15.83;;;14.53;;
4508;SDS011;2267;48.816;9.230;2024-03-02T02:45:09;16.90;;;15.40;;
4508;SDS011;2267;48.816;9.230;2024-03-02T02:47:37;15.83;;;14.53;;
4508;SDS011;2267;48.816;9.230;2024-03-02T02:50:04;16.83;;;15.43;;
4508;SDS011;2267;48.816;9.230;2024-03-02T02:52:34;17.73;;;16.13;;
4508;SDS011;2267;48.816;9.230;2024-03-02T02:55:03;16.77;;;15.40;;
4508;SDS011;2267;48.816;9.230;2024-03-02T02:57:33;17.40;;;16.00;;
4508;SDS011;2267;48.816;9.230;2024-03-02T03:00:07;16.80;;;15.40;;
4508;SDS011;2267;48.816;9.230;2024-03-02T03:02:45;16.70;;;15.30;;
4508;SDS011;2267;48.816;9.230;2024-03-02T03:05:14;16.67;;;15.17;;
4508;SDS011;2267;48.816;9.230;2024-03-02T03:07:42;17.97;;;16.30;;
4508;SDS011;2267;48.816;9.230;2024-03-02T03:10:11;18.17;;;16.63;;
4508;SDS011;2267;48.816;9.230;2024-03-02T03:12:38;18.73;;;17.20;;
4508;SDS011;2267;48.816;9.230;2024-03-02T03:15:07;18.63;;;17.00;;
4508;SDS011;2267;48.816;9.230;2024-03-02T03:17:35;18.63;;;16.93;;
4508;SDS011;2267;48.816;9.230;2024-03-02T03:20:03;16.97;;;15.63;;
4508;SDS011;2267;48.816;9.230;2024-03-02T03:22:32;17.03;;;15.60;;
4508;SDS011;2267;48.816;9.230;2024-03-02T03:24:59;16.93;;;15.43;;
4508;SDS011;2267;48.816;9.230;2024-03-02T03:27:26;17.50;;;16.03;;
4508;SDS011;2267;48.816;9.230;2024-03-02T03:29:53;17.10;;;15.70;;
4508;SDS011;2267;48.816;9.230;2024-03-02T03:32:20;16.53;;;15.20;;
4508;SDS011;2267;48.816;9.230;2024-03-02T03:34:48;17.67;;;16.37;;
4508;SDS011;2267;48.816;9.230;2024-03-02T03:37:15;17.23;;;15.83;;
4508;SDS011;2267;48.816;9.230;2024-03-02T03:39:43;16.93;;;15.60;;
4508;SDS011;2267;48.816;9.230;2024-03-02T03:42:10;17.80;;;16.40;;
4508;SDS011;2267;48.816;9.230;2024-03-02T03:44:36;16.97;;;15.47;;
4508;SDS011;2267;48.816;9.230;2024-03-02T03:47:05;17.77;;;16.27;;
4508;SDS011;2267;48.816;9.230;2024-03-02T03:49:32;16.60;;;15.30;;
4508;SDS011;2267;48.816;9.230;2024-03-02T03:51:59;18.17;;;16.67;;
4508;SDS011;2267;48.816;9.230;2024-03-02T03:54:26;17.67;;;16.20;;
4508;SDS011;2267;48.816;9.230;2024-03-02T03:56:53;15.93;;;14.63;;
4508;SDS011;2267;48.816;9.230;2024-03-02T03:59:20;16.70;;;15.40;;
4508;SDS011;2267;48.816;9.230;2024-03-02T04:01:47;17.17;;;15.70;;
4508;SDS011;2267;48.816;9.230;2024-03-02T04:04:14;15.63;;;14.30;;
4508;SDS011;2267;48.816;9.230;2024-03-02T04:06:41;17.87;;;16.37;;
4508;SDS011;2267;48.816;9.230;2024-03-02T04:09:08;15.90;;;14.60;;
4508;SDS011;2267;48.816;9.230;2024-03-02T04:11:34;16.87;;;15.43;;
4508;SDS011;2267;48.816;9.230;2024-03-02T04:14:01;18.27;;;16.77;;
4508;SDS011;2267;48.816;9.230;2024-03-02T04:16:28;17.50;;;16.10;;
4508;SDS011;2267;48.816;9.230;2024-03-02T04:18:55;16.57;;;15.07;;
4508;SDS011;2267;48.816;9.230;2024-03-02T04:21:21;17.50;;;15.93;;
4508;SDS011;2267;48.816;9.230;2024-03-02T04:23:48;15.93;;;14.57;;
4508;SDS011;2267;48.816;9.230;2024-03-02T04:26:15;16.23;;;14.93;;
4508;SDS011;2267;48.816;9.230;2024-03-02T04:28:46;19.27;;;17.47;;
4508;SDS011;2267;48.816;9.230;2024-03-02T04:31:14;16.33;;;15.00;;
4508;SDS011;2267;48.816;9.230;2024-03-02T04:33:41;17.03;;;15.63;;
4508;SDS011;2267;48.816;9.230;2024-03-02T04:36:08;15.90;;;14.60;;
4508;SDS011;2267;48.816;9.230;2024-03-02T04:38:38;17.37;;;15.87;;
4508;SDS011;2267;48.816;9.230;2024-03-02T04:41:05;17.47;;;15.97;;
4508;SDS011;2267;48.816;9.230;2024-03-02T04:43:32;16.30;;;14.87;;
4508;SDS011;2267;48.816;9.230;2024-03-02T04:46:00;18.33;;;16.83;;
4508;SDS011;2267;48.816;9.230;2024-03-02T04:48:27;18.27;;;16.67;;
4508;SDS011;2267;48.816;9.230;2024-03-02T04:50:54;17.30;;;15.80;;
4508;SDS011;2267;48.816;9.230;2024-03-02T04:53:21;17.73;;;16.33;;
4508;SDS011;2267;48.816;9.230;2024-03-02T04:55:48;18.27;;;16.77;;
4508;SDS011;2267;48.816;9.230;2024-03-02T04:58:20;16.90;;;15.50;;
4508;SDS011;2267;48.816;9.230;2024-03-02T05:00:47;18.00;;;16.40;;
4508;SDS011;2267;48.816;9.230;2024-03-02T05:03:14;18.70;;;17.10;;
4508;SDS011;2267;48.816;9.230;2024-03-02T05:05:41;17.37;;;15.90;;
4508;SDS011;2267;48.816;9.230;2024-03-02T05:08:08;16.90;;;15.60;;
4508;SDS011;2267;48.816;9.230;2024-03-02T05:10:34;16.97;;;15.50;;
4508;SDS011;2267;48.816;9.230;2024-03-02T05:13:02;16.90;;;15.50;;
4508;SDS011;2267;48.816;9.230;2024-03-02T05:15:30;17.43;;;15.93;;
4508;SDS011;2267;48.816;9.230;2024-03-02T05:17:57;18.20;;;16.70;;
4508;SDS011;2267;48.816;9.230;2024-03-02T05:20:25;19.00;;;17.40;;
4508;SDS011;2267;48.816;9.230;2024-03-02T05:22:52;18.10;;;16.50;;
4508;SDS011;2267;48.816;9.230;2024-03-02T05:25:19;19.63;;;17.93;;
4508;SDS011;2267;48.816;9.230;2024-03-02T05:27:46;19.63;;;18.03;;
4508;SDS011;2267;48.816;9.230;2024-03-02T05:30:13;21.33;;;19.33;;
4508;SDS011;2267;48.816;9.230;2024-03-02T05:32:40;20.40;;;18.50;;
4508;SDS011;2267;48.816;9.230;2024-03-02T05:35:11;20.33;;;18.43;;
4508;SDS011;2267;48.816;9.230;2024-03-02T05:37:39;19.97;;;18.37;;
4508;SDS011;2267;48.816;9.230;2024-03-02T05:40:06;21.03;;;19.27;;
4508;SDS011;2267;48.816;9.230;2024-03-02T05:42:34;21.83;;;20.03;;
4508;SDS011;2267;48.816;9.230;2024-03-02T05:45:01;20.07;;;18.37;;
4508;SDS011;2267;48.816;9.230;2024-03-02T05:47:28;18.77;;;17.17;;
4508;SDS011;2267;48.816;9.230;2024-03-02T05:49:55;19.80;;;18.20;;
4508;SDS011;2267;48.816;9.230;2024-03-02T05:52:21;18.60;;;17.07;;
4508;SDS011;2267;48.816;9.230;2024-03-02T05:54:48;18.83;;;17.33;;
4508;SDS011;2267;48.816;9.230;2024-03-02T05:57:15;20.73;;;18.97;;
4508;SDS011;2267;48.816;9.230;2024-03-02T05:59:43;20.10;;;18.20;;
4508;SDS011;2267;48.816;9.230;2024-03-02T06:02:10;20.27;;;18.67;;
4508;SDS011;2267;48.816;9.230;2024-03-02T06:04:37;20.77;;;18.93;;
4508;SDS011;2267;48.816;9.230;2024-03-02T06:07:04;20.83;;;19.03;;
4508;SDS011;2267;48.816;9.230;2024-03-02T06:09:31;19.30;;;17.70;;
4508;SDS011;2267;48.816;9.230;2024-03-02T06:11:58;22.80;;;20.70;;
4508;SDS011;2267;48.816;9.230;2024-03-02T06:14:25;21.27;;;19.53;;
4508;SDS011;2267;48.816;9.230;2024-03-02T06:16:52;21.53;;;19.70;;
4508;SDS011;2267;48.816;9.230;2024-03-02T06:19:19;20.13;;;18.53;;
4508;SDS011;2267;48.816;9.230;2024-03-02T06:21:46;22.30;;;20.47;;
4508;SDS011;2267;48.816;9.230;2024-03-02T06:24:12;20.43;;;18.80;;
4508;SDS011;2267;48.816;9.230;2024-03-02T06:26:39;21.03;;;19.23;;
4508;SDS011;2267;48.816;9.230;2024-03-02T06:29:06;20.63;;;18.83;;
4508;SDS011;2267;48.816;9.230;2024-03-02T06:31:34;20.83;;;19.10;;
4508;SDS011;2267;48.816;9.230;2024-03-02T06:34:01;21.73;;;19.70;;
4508;SDS011;2267;48.816;9.230;2024-03-02T06:36:30;20.73;;;18.93;;
4508;SDS011;2267;48.816;9.230;2024-03-02T06:38:56;21.57;;;19.77;;
4508;SDS011;2267;48.816;9.230;2024-03-02T06:41:23;22.13;;;20.13;;
4508;SDS011;2267;48.816;9.230;2024-03-02T06:43:50;20.30;;;18.70;;
4508;SDS011;2267;48.816;9.230;2024-03-02T06:46:25;21.87;;;19.97;;
4508;SDS011;2267;48.816;9.230;2024-03-02T06:48:52;19.00;;;17.17;;
4508;SDS011;2267;48.816;9.230;2024-03-02T06:51:19;18.77;;;17.27;;
4508;SDS011;2267;48.816;9.230;2024-03-02T06:53:46;20.30;;;18.53;;
4508;SDS011;2267;48.816;9.230;2024-03-02T06:56:13;20.70;;;18.67;;
4508;SDS011;2267;48.816;9.230;2024-03-02T06:58:40;19.70;;;18.00;;
4508;SDS011;2267;48.816;9.230;2024-03-02T07:01:09;19.57;;;17.87;;
4508;SDS011;2267;48.816;9.230;2024-03-02T07:03:36;21.73;;;19.57;;
4508;SDS011;2267;48.816;9.230;2024-03-02T07:06:03;21.87;;;20.07;;
4508;SDS011;2267;48.816;9.230;2024-03-02T07:08:30;18.73;;;17.10;;
4508;SDS011;2267;48.816;9.230;2024-03-02T07:10:57;17.83;;;16.33;;
4508;SDS011;2267;48.816;9.230;2024-03-02T07:13:24;19.83;;;18.13;;
4508;SDS011;2267;48.816;9.230;2024-03-02T07:15:51;21.27;;;19.43;;
4508;SDS011;2267;48.816;9.230;2024-03-02T07:18:30;17.40;;;15.90;;
4508;SDS011;2267;48.816;9.230;2024-03-02T07:20:57;18.20;;;16.73;;
4508;SDS011;2267;48.816;9.230;2024-03-02T07:23:25;18.80;;;17.30;;
4508;SDS011;2267;48.816;9.230;2024-03-02T07:25:53;17.60;;;16.17;;
4508;SDS011;2267;48.816;9.230;2024-03-02T07:28:26;16.73;;;15.43;;
4508;SDS011;2267;48.816;9.230;2024-03-02T07:31:03;17.07;;;15.67;;
4508;SDS011;2267;48.816;9.230;2024-03-02T07:33:31;17.23;;;15.83;;
4508;SDS011;2267;48.816;9.230;2024-03-02T07:35:58;16.07;;;14.67;;
4508;SDS011;2267;48.816;9.230;2024-03-02T07:38:30;14.93;;;13.77;;
4508;SDS011;2267;48.816;9.230;2024-03-02T07:40:58;14.40;;;13.20;;
4508;SDS011;2267;48.816;9.230;2024-03-02T07:43:25;15.63;;;14.33;;
4508;SDS011;2267;48.816;9.230;2024-03-02T07:45:52;15.97;;;14.50;;
4508;SDS011;2267;48.816;9.230;2024-03-02T07:48:19;13.90;;;12.50;;
4508;SDS011;2267;48.816;9.230;2024-03-02T07:50:47;14.83;;;13.53;;
4508;SDS011;2267;48.816;9.230;2024-03-02T07:53:14;12.43;;;11.53;;
4508;SDS011;2267;48.816;9.230;2024-03-02T07:55:41;13.17;;;12.00;;
4508;SDS011;2267;48.816;9.230;2024-03-02T07:58:08;13.83;;;12.73;;
4508;SDS011;2267;48.816;9.230;2024-03-02T08:00:35;13.50;;;12.40;;
4508;SDS011;2267;48.816;9.230;2024-03-02T08:03:02;12.53;;;11.53;;
4508;SDS011;2267;48.816;9.230;2024-03-02T08:05:29;13.00;;;11.90;;
4508;SDS011;2267;48.816;9.230;2024-03-02T08:07:56;12.10;;;11.10;;
4508;SDS011;2267;48.816;9.230;2024-03-02T08:10:23;11.93;;;11.00;;
4508;SDS011;2267;48.816;9.230;2024-03-02T08:12:50;11.73;;;10.80;;
4508;SDS011;2267;48.816;9.230;2024-03-02T08:15:17;11.50;;;10.40;;
4508;SDS011;2267;48.816;9.230;2024-03-02T08:17:44;11.87;;;10.87;;
4508;SDS011;2267;48.816;9.230;2024-03-02T08:20:15;12.10;;;11.10;;
4508;SDS011;2267;48.816;9.230;2024-03-02T08:22:42;11.23;;;10.33;;
4508;SDS011;2267;48.816;9.230;2024-03-02T08:25:09;13.00;;;12.00;;
4508;SDS011;2267;48.816;9.230;2024-03-02T08:27:36;11.20;;;10.30;;
4508;SDS011;2267;48.816;9.230;2024-03-02T08:30:04;12.00;;;11.10;;
4508;SDS011;2267;48.816;9.230;2024-03-02T08:32:33;11.80;;;10.90;;
4508;SDS011;2267;48.816;9.230;2024-03-02T08:35:01;11.50;;;10.60;;
4508;SDS011;2267;48.816;9.230;2024-03-02T08:37:28;11.17;;;10.37;;
4508;SDS011;2267;48.816;9.230;2024-03-02T08:39:55;11.13;;;10.20;;
4508;SDS011;2267;48.816;9.230;2024-03-02T08:42:22;12.10;;;11.20;;
4508;SDS011;2267;48.816;9.230;2024-03-02T08:44:49;11.67;;;10.77;;
4508;SDS011;2267;48.816;9.230;2024-03-02T08:47:16;11.30;;;10.40;;
4508;SDS011;2267;48.816;9.230;2024-03-02T08:49:43;12.30;;;11.30;;
4508;SDS011;2267;48.816;9.230;2024-03-02T08:52:10;10.97;;;10.07;;
4508;SDS011;2267;48.816;9.230;2024-03-02T08:54:37;10.43;;;9.53;;
4508;SDS011;2267;48.816;9.230;2024-03-02T08:57:04;12.10;;;11.10;;
4508;SDS011;2267;48.816;9.230;2024-03-02T08:59:32;12.20;;;11.30;;
4508;SDS011;2267;48.816;9.230;2024-03-02T09:01:59;12.43;;;11.43;;
4508;SDS011;2267;48.816;9.230;2024-03-02T09:04:26;12.77;;;11.67;;
4508;SDS011;2267;48.816;9.230;2024-03-02T09:06:57;13.10;;;12.00;;
4508;SDS011;2267;48.816;9.230;2024-03-02T09:09:24;12.87;;;11.87;;
4508;SDS011;2267;48.816;9.230;2024-03-02T09:11:51;11.40;;;10.50;;
4508;SDS011;2267;48.816;9.230;2024-03-02T09:14:21;12.10;;;11.20;;
4508;SDS011;2267;48.816;9.230;2024-03-02T09:16:48;12.40;;;11.20;;
4508;SDS011;2267;48.816;9.230;2024-03-02T09:19:15;10.87;;;10.03;;
4508;SDS011;2267;48.816;9.230;2024-03-02T09:21:42;9.70;;;8.90;;
4508;SDS011;2267;48.816;9.230;2024-03-02T09:24:10;8.80;;;8.10;;
4508;SDS011;2267;48.816;9.230;2024-03-02T09:26:39;8.80;;;8.10;;
4508;SDS011;2267;48.816;9.230;2024-03-02T09:29:06;8.63;;;7.93;;
4508;SDS011;2267;48.816;9.230;2024-03-02T09:31:33;7.60;;;7.00;;
4508;SDS011;2267;48.816;9.230;2024-03-02T09:34:09;7.70;;;7.03;;
4508;SDS011;2267;48.816;9.230;2024-03-02T09:36:36;8.67;;;7.97;;
4508;SDS011;2267;48.816;9.230;2024-03-02T09:39:03;7.10;;;6.50;;
4508;SDS011;2267;48.816;9.230;2024-03-02T09:41:30;7.53;;;6.90;;
4508;SDS011;2267;48.816;9.230;2024-03-02T09:43:59;7.13;;;6.53;;
4508;SDS011;2267;48.816;9.230;2024-03-02T09:46:26;6.60;;;6.10;;
4508;SDS011;2267;48.816;9.230;2024-03-02T09:48:54;6.20;;;5.70;;
4508;SDS011;2267;48.816;9.230;2024-03-02T09:51:21;6.40;;;5.90;;
4508;SDS011;2267;48.816;9.230;2024-03-02T09:53:48;6.80;;;6.20;;
4508;SDS011;2267;48.816;9.230;2024-03-02T09:56:16;6.50;;;6.03;;
4508;SDS011;2267;48.816;9.230;2024-03-02T09:58:44;6.60;;;6.10;;
4508;SDS011;2267;48.816;9.230;2024-03-02T10:01:11;6.87;;;6.30;;
4508;SDS011;2267;48.816;9.230;2024-03-02T10:03:38;5.60;;;5.20;;
4508;SDS011;2267;48.816;9.230;2024-03-02T10:06:26;5.90;;;5.50;;
4508;SDS011;2267;48.816;9.230;2024-03-02T10:08:54;5.90;;;5.40;;
4508;SDS011;2267;48.816;9.230;2024-03-02T10:11:26;5.60;;;5.20;;
4508;SDS011;2267;48.816;9.230;2024-03-02T10:14:08;6.27;;;5.77;;
4508;SDS011;2267;48.816;9.230;2024-03-02T10:16:40;5.90;;;5.40;;
4508;SDS011;2267;48.816;9.230;2024-03-02T10:21:41;5.63;;;5.23;;
4508;SDS011;2267;48.816;9.230;2024-03-02T10:24:08;6.80;;;6.10;;
4508;SDS011;2267;48.816;9.230;2024-03-02T10:26:35;5.97;;;5.57;;
4508;SDS011;2267;48.816;9.230;2024-03-02T10:29:02;6.50;;;5.90;;
4508;SDS011;2267;48.816;9.230;2024-03-02T10:31:29;5.40;;;4.97;;
4508;SDS011;2267;48.816;9.230;2024-03-02T10:34:00;5.03;;;4.60;;
4508;SDS011;2267;48.816;9.230;2024-03-02T10:36:28;5.23;;;4.83;;
4508;SDS011;2267;48.816;9.230;2024-03-02T10:38:58;5.80;;;5.30;;
4508;SDS011;2267;48.816;9.230;2024-03-02T10:41:28;5.70;;;5.30;;
4508;SDS011;2267;48.816;9.230;2024-03-02T10:43:58;5.00;;;4.60;;
4508;SDS011;2267;48.816;9.230;2024-03-02T10:46:29;5.33;;;4.83;;
4508;SDS011;2267;48.816;9.230;2024-03-02T10:48:58;5.70;;;5.17;;
4508;SDS011;2267;48.816;9.230;2024-03-02T10:51:29;5.43;;;5.00;;
4508;SDS011;2267;48.816;9.230;2024-03-02T10:53:58;4.90;;;4.50;;
4508;SDS011;2267;48.816;9.230;2024-03-02T10:56:28;4.73;;;4.33;;
4508;SDS011;2267;48.816;9.230;2024-03-02T11:01:53;4.70;;;4.30;;
4508;SDS011;2267;48.816;9.230;2024-03-02T11:04:31;4.37;;;3.97;;
4508;SDS011;2267;48.816;9.230;2024-03-02T11:07:07;6.10;;;4.40;;
4508;SDS011;2267;48.816;9.230;2024-03-02T11:09:37;4.80;;;4.40;;
4508;SDS011;2267;48.816;9.230;2024-03-02T11:14:53;3.43;;;3.13;;
4508;SDS011;2267;48.816;9.230;2024-03-02T11:17:22;4.53;;;4.13;;
4508;SDS011;2267;48.816;9.230;2024-03-02T11:19:50;5.53;;;3.37;;
4508;SDS011;2267;48.816;9.230;2024-03-02T11:22:17;5.07;;;3.93;;
4508;SDS011;2267;48.816;9.230;2024-03-02T11:24:51;3.87;;;3.57;;
4508;SDS011;2267;48.816;9.230;2024-03-02T11:30:48;4.03;;;3.60;;
4508;SDS011;2267;48.816;9.230;2024-03-02T11:33:06;3.47;;;3.17;;
4508;SDS011;2267;48.816;9.230;2024-03-02T11:35:42;3.33;;;3.03;;
4508;SDS011;2267;48.816;9.230;2024-03-02T11:38:13;3.00;;;2.70;;
4508;SDS011;2267;48.816;9.230;2024-03-02T11:40:40;4.27;;;3.03;;
4508;SDS011;2267;48.816;9.230;2024-03-02T11:43:07;2.97;;;2.67;;
4508;SDS011;2267;48.816;9.230;2024-03-02T11:45:35;3.33;;;2.47;;
4508;SDS011;2267;48.816;9.230;2024-03-02T11:48:07;2.43;;;2.03;;
4508;SDS011;2267;48.816;9.230;2024-03-02T11:50:40;2.70;;;2.00;;
4508;SDS011;2267;48.816;9.230;2024-03-02T11:53:13;2.13;;;1.90;;
4508;SDS011;2267;48.816;9.230;2024-03-02T11:55:40;2.77;;;1.70;;
4508;SDS011;2267;48.816;9.230;2024-03-02T11:58:07;2.53;;;1.73;;
4508;SDS011;2267;48.816;9.230;2024-03-02T12:00:34;2.47;;;1.80;;
4508;SDS011;2267;48.816;9.230;2024-03-02T12:03:03;1.77;;;1.37;;
4508;SDS011;2267;48.816;9.230;2024-03-02T12:05:31;2.30;;;1.70;;
4508;SDS011;2267;48.816;9.230;2024-03-02T12:07:59;2.43;;;1.70;;
4508;SDS011;2267;48.816;9.230;2024-03-02T12:10:27;1.80;;;1.10;;
4508;SDS011;2267;48.816;9.230;2024-03-02T12:12:55;1.80;;;1.10;;
4508;SDS011;2267;48.816;9.230;2024-03-02T12:15:30;2.53;;;0.90;;
4508;SDS011;2267;48.816;9.230;2024-03-02T12:17:59;2.87;;;1.33;;
4508;SDS011;2267;48.816;9.230;2024-03-02T12:20:28;2.10;;;1.40;;
4508;SDS011;2267;48.816;9.230;2024-03-02T12:22:57;1.87;;;1.20;;
4508;SDS011;2267;48.816;9.230;2024-03-02T12:25:26;1.70;;;1.00;;
4508;SDS011;2267;48.816;9.230;2024-03-02T12:27:54;1.90;;;1.17;;
4508;SDS011;2267;48.816;9.230;2024-03-02T12:30:22;1.93;;;1.20;;
4508;SDS011;2267;48.816;9.230;2024-03-02T12:32:50;1.80;;;1.30;;
4508;SDS011;2267;48.816;9.230;2024-03-02T12:35:17;2.10;;;1.30;;
4508;SDS011;2267;48.816;9.230;2024-03-02T12:37:45;1.90;;;1.17;;
4508;SDS011;2267;48.816;9.230;2024-03-02T12:40:14;2.23;;;1.00;;
4508;SDS011;2267;48.816;9.230;2024-03-02T12:42:47;3.60;;;1.13;;
4508;SDS011;2267;48.816;9.230;2024-03-02T12:45:15;2.00;;;1.27;;
4508;SDS011;2267;48.816;9.230;2024-03-02T12:47:42;1.70;;;1.10;;
4508;SDS011;2267;48.816;9.230;2024-03-02T12:50:10;1.60;;;0.90;;
4508;SDS011;2267;48.816;9.230;2024-03-02T12:52:36;1.70;;;1.00;;
4508;SDS011;2267;48.816;9.230;2024-03-02T12:55:06;1.70;;;0.90;;
4508;SDS011;2267;48.816;9.230;2024-03-02T12:57:34;1.80;;;1.10;;
4508;SDS011;2267;48.816;9.230;2024-03-02T13:00:05;2.00;;;1.00;;
4508;SDS011;2267;48.816;9.230;2024-03-02T13:02:36;1.70;;;0.90;;
4508;SDS011;2267;48.816;9.230;2024-03-02T13:05:03;1.70;;;1.10;;
4508;SDS011;2267;48.816;9.230;2024-03-02T13:07:32;1.80;;;1.20;;
4508;SDS011;2267;48.816;9.230;2024-03-02T13:10:00;1.70;;;1.00;;
4508;SDS011;2267;48.816;9.230;2024-03-02T13:12:27;2.03;;;1.13;;
4508;SDS011;2267;48.816;9.230;2024-03-02T13:14:54;2.10;;;1.30;;
4508;SDS011;2267;48.816;9.230;2024-03-02T13:17:21;1.90;;;1.33;;
4508;SDS011;2267;48.816;9.230;2024-03-02T13:19:58;2.20;;;1.20;;
4508;SDS011;2267;48.816;9.230;2024-03-02T13:22:25;1.83;;;1.17;;
4508;SDS011;2267;48.816;9.230;2024-03-02T13:24:53;2.40;;;1.20;;
4508;SDS011;2267;48.816;9.230;2024-03-02T13:27:20;1.70;;;1.00;;
4508;SDS011;2267;48.816;9.230;2024-03-02T13:29:48;1.97;;;1.20;;
4508;SDS011;2267;48.816;9.230;2024-03-02T13:32:15;1.90;;;1.00;;
4508;SDS011;2267;48.816;9.230;2024-03-02T13:34:43;1.67;;;0.83;;
4508;SDS011;2267;48.816;9.230;2024-03-02T13:37:09;2.93;;;1.30;;
4508;SDS011;2267;48.816;9.230;2024-03-02T13:39:36;1.97;;;1.07;;
4508;SDS011;2267;48.816;9.230;2024-03-02T13:42:10;1.63;;;1.00;;
4508;SDS011;2267;48.816;9.230;2024-03-02T13:44:39;1.73;;;0.90;;
4508;SDS011;2267;48.816;9.230;2024-03-02T13:47:07;1.80;;;1.10;;
4508;SDS011;2267;48.816;9.230;2024-03-02T13:49:34;2.30;;;1.13;;
4508;SDS011;2267;48.816;9.230;2024-03-02T13:52:07;2.53;;;1.20;;
4508;SDS011;2267;48.816;9.230;2024-03-02T13:54:40;1.90;;;1.20;;
4508;SDS011;2267;48.816;9.230;2024-03-02T13:57:08;1.80;;;1.13;;
4508;SDS011;2267;48.816;9.230;2024-03-02T13:59:36;1.70;;;1.07;;
4508;SDS011;2267;48.816;9.230;2024-03-02T14:02:04;2.10;;;1.43;;
4508;SDS011;2267;48.816;9.230;2024-03-02T14:04:33;2.00;;;1.57;;
4508;SDS011;2267;48.816;9.230;2024-03-02T14:07:00;1.90;;;1.20;;
4508;SDS011;2267;48.816;9.230;2024-03-02T14:09:28;1.80;;;1.20;;
4508;SDS011;2267;48.816;9.230;2024-03-02T14:11:56;2.80;;;1.20;;
4508;SDS011;2267;48.816;9.230;2024-03-02T14:14:23;1.80;;;1.20;;
4508;SDS011;2267;48.816;9.230;2024-03-02T14:16:50;3.27;;;1.60;;
4508;SDS011;2267;48.816;9.230;2024-03-02T14:19:18;1.97;;;1.40;;
4508;SDS011;2267;48.816;9.230;2024-03-02T14:21:45;1.97;;;1.20;;
4508;SDS011;2267;48.816;9.230;2024-03-02T14:24:12;2.00;;;1.20;;
4508;SDS011;2267;48.816;9.230;2024-03-02T14:26:41;1.80;;;1.10;;
4508;SDS011;2267;48.816;9.230;2024-03-02T14:29:08;2.20;;;1.97;;
4508;SDS011;2267;48.816;9.230;2024-03-02T14:31:35;2.63;;;1.70;;
4508;SDS011;2267;48.816;9.230;2024-03-02T14:34:01;2.73;;;1.00;;
4508;SDS011;2267;48.816;9.230;2024-03-02T14:36:29;2.00;;;1.30;;
4508;SDS011;2267;48.816;9.230;2024-03-02T14:38:56;1.93;;;1.20;;
4508;SDS011;2267;48.816;9.230;2024-03-02T14:41:23;2.07;;;1.27;;
4508;SDS011;2267;48.816;9.230;2024-03-02T14:43:51;3.50;;;2.47;;
4508;SDS011;2267;48.816;9.230;2024-03-02T14:46:18;4.97;;;4.13;;
4508;SDS011;2267;48.816;9.230;2024-03-02T14:48:46;2.50;;;2.07;;
4508;SDS011;2267;48.816;9.230;2024-03-02T14:51:13;6.77;;;4.70;;
4508;SDS011;2267;48.816;9.230;2024-03-02T14:53:40;4.53;;;4.13;;
4508;SDS011;2267;48.816;9.230;2024-03-02T14:56:07;3.60;;;2.97;;
4508;SDS011;2267;48.816;9.230;2024-03-02T14:58:34;3.13;;;2.83;;
4508;SDS011;2267;48.816;9.230;2024-03-02T15:01:03;3.53;;;2.60;;
4508;SDS011;2267;48.816;9.230;2024-03-02T15:03:32;2.20;;;1.40;;
4508;SDS011;2267;48.816;9.230;2024-03-02T15:06:00;2.57;;;1.23;;
4508;SDS011;2267;48.816;9.230;2024-03-02T15:08:27;1.60;;;1.03;;
4508;SDS011;2267;48.816;9.230;2024-03-02T15:10:54;2.23;;;1.00;;
4508;SDS011;2267;48.816;9.230;2024-03-02T15:13:22;3.07;;;1.67;;
4508;SDS011;2267;48.816;9.230;2024-03-02T15:15:49;2.03;;;1.57;;
4508;SDS011;2267;48.816;9.230;2024-03-02T15:18:17;1.80;;;1.33;;